Flight Track Log - Related Links

Times and Time Zones

All times are in EDT time to prevent confusion due to time zone crossing. See the GJS6221 flight status page for this flight to view local times or setup timezone preferences in your user account.

Time Position Orientation Groundspeed Altitude Reporting Facility
EDT Latitude Longitude Course Direction KTS MPH feet Rate Location/Type
Sun 02:13:19 PM 40.7500 -73.8333 90° East 164 189 1,900  Level New TRACON
Sun 02:14:19 PM 40.7500 -73.7833 90° East 226 260 4,300 2,250 Climbing New TRACON
Sun 02:15:19 PM 40.8000 -73.7667 14° North 257 296 6,400 1,900 Climbing New TRACON
Sun 02:16:19 PM 40.8500 -73.8500 308° West 283 326 8,100 1,150 Climbing New TRACON
Sun 02:17:19 PM 40.9000 -73.9333 308° West 283 326 8,700 1,539 Climbing New TRACON
Sun 02:19:30 PM 40.9775 -74.1600 294° West 328 377 13,000 1,989 Climbing New Center
Sun 02:20:29 PM 41.0136 -74.2828 291° West 350 403 15,000 1,983 Climbing New Center
Sun 02:21:28 PM 41.0478 -74.3917 293° West 355 409 16,900 1,488 Climbing New Center
Sun 02:22:30 PM 41.0892 -74.5372 291° West 366 421 18,000 545 Climbing New Center
Sun 02:23:29 PM 41.1269 -74.6522 294° West 379 436 18,000 101 Level New Center
Sun 02:24:29 PM 41.1767 -74.7844 297° West 369 425 18,200 836 Climbing New Center
Sun 02:25:31 PM 41.2211 -74.8864 300° West 369 425 19,700 1,632 Climbing New Center
Sun 02:28:28 PM 41.3861 -75.2725 301° West 385 443 24,700 1,563 Climbing New Center
Sun 02:29:29 PM 41.4417 -75.3981 301° West 385 443 25,900 1,024 Climbing New Center
Sun 02:30:31 PM 41.4886 -75.5314 295° West 390 449 26,800 862 Climbing New Center
Sun 02:32:30 PM 41.5744 -75.8206 292° West 416 479 28,500 780 Climbing New Center
Sun 02:33:28 PM 41.6178 -75.9764 290° West 431 496 29,100 555 Climbing New Center
Sun 02:34:29 PM 41.6608 -76.1297 291° West 442 509 29,600 545 Climbing New Center
Sun 02:35:29 PM 41.7056 -76.2889 291° West 447 514 30,200 744 Climbing New Center
Sun 02:36:30 PM 41.7503 -76.4483 291° West 452 520 31,100 1,066 Climbing New Center
Sun 02:38:01 PM 41.8125 -76.6722 291° West 451 519 32,900 1,137 Climbing Cleveland Center
Sun 02:39:03 PM 41.8544 -76.8236 290° West 438 504 34,000 1,016 Climbing Cleveland Center
Sun 02:40:05 PM 41.8950 -76.9731 290° West 429 494 35,000 1,065 Climbing Cleveland Center
Sun 02:41:07 PM 41.9422 -77.1508 290° West 423 487 36,200 871 Climbing Cleveland Center
Sun 02:42:09 PM 41.9814 -77.2997 290° West 423 487 36,800 528 Climbing Cleveland Center
Sun 02:43:12 PM 42.0214 -77.4481 290° West 423 487 37,300 480 Climbing Cleveland Center
Sun 02:44:14 PM 42.0622 -77.5967 290° West 423 487 37,800 339 Climbing Cleveland Center
Sun 02:45:16 PM 42.1031 -77.7489 290° West 426 490 38,000 97 Climbing Cleveland Center
Sun 02:46:18 PM 42.1447 -77.9014 290° West 427 491 38,000  Level Cleveland Center
Sun 02:47:20 PM 42.1833 -78.0494 289° West 421 484 38,000  Level Cleveland Center
Sun 02:48:22 PM 42.2306 -78.2250 290° West 416 479 38,000  Level Cleveland Center
Sun 02:49:24 PM 42.2672 -78.3706 289° West 414 476 38,000  Level Cleveland Center
Sun 02:50:26 PM 42.3044 -78.5203 289° West 414 476 38,000  Level Cleveland Center
Sun 02:51:28 PM 42.3414 -78.6728 288° West 421 484 38,000  Level Cleveland Center
Sun 02:52:30 PM 42.3792 -78.8256 289° West 426 490 38,000  Level Cleveland Center
Sun 02:53:32 PM 42.4192 -78.9894 288° West 430 495 38,000  Level Cleveland Center
Sun 02:54:35 PM 42.4617 -79.1625 288° West 430 495 38,000  Level Cleveland Center
Sun 02:55:37 PM 42.4981 -79.3125 288° West 424 488 38,000  Level Cleveland Center
Sun 02:56:39 PM 42.5347 -79.4647 288° West 424 488 38,000  Level Cleveland Center
Sun 02:57:41 PM 42.5717 -79.6158 288° West 422 486 38,000  Level Cleveland Center
Sun 02:58:43 PM 42.6069 -79.7661 288° West 422 486 38,000  Level Cleveland Center
Sun 02:59:45 PM 42.6186 -79.9244 276° West 427 491 38,000  Level Cleveland Center
Sun 03:00:47 PM 42.6258 -80.1000 273° West 424 488 38,000  Level Cleveland Center
Sun 03:01:49 PM 42.6319 -80.2594 273° West 423 487 38,000  Level Cleveland Center
Sun 03:02:51 PM 42.6389 -80.4186 273° West 423 487 38,000  Level Cleveland Center
Sun 03:03:54 PM 42.6450 -80.6061 273° West 422 486 38,000  Level Cleveland Center
Sun 03:04:56 PM 42.6519 -80.7675 273° West 423 487 38,000  Level Cleveland Center
Sun 03:05:58 PM 42.6567 -80.9281 272° West 423 487 38,000  Level Cleveland Center
Sun 03:07:00 PM 42.6611 -81.0864 272° West 422 486 38,000  Level Cleveland Center
Sun 03:08:02 PM 42.6664 -81.2472 273° West 421 484 38,000  Level Cleveland Center
Sun 03:09:04 PM 42.6831 -81.4044 278° West 421 484 38,000  Level Cleveland Center
Sun 03:10:06 PM 42.7047 -81.5872 279° West 420 483 38,000  Level Cleveland Center
Sun 03:11:08 PM 42.7225 -81.7475 279° West 420 483 38,000  Level Cleveland Center
Sun 03:12:10 PM 42.7411 -81.9125 279° West 421 484 38,000  Level Cleveland Center
Sun 03:13:13 PM 42.7586 -82.0725 279° West 427 491 38,000  Level Cleveland Center
Sun 03:14:15 PM 42.7756 -82.2322 278° West 427 491 38,000  Level Cleveland Center
Sun 03:15:17 PM 42.7936 -82.3933 279° West 430 495 38,000  Level Cleveland Center
Sun 03:16:19 PM 42.8111 -82.5558 278° West 431 496 38,000  Level Cleveland Center
Sun 03:17:21 PM 42.8319 -82.7175 280° West 433 498 38,000  Level Cleveland Center
Sun 03:18:23 PM 42.8586 -82.9119 281° West 435 501 38,000  Level Cleveland Center
Sun 03:19:25 PM 42.8808 -83.0725 281° West 435 501 38,000  Level Cleveland Center
Sun 03:20:27 PM 42.9019 -83.2336 280° West 435 501 38,000  Level Cleveland Center
Sun 03:21:29 PM 42.9217 -83.3922 280° West 432 497 38,000  Level Cleveland Center
Sun 03:22:32 PM 42.9433 -83.5528 280° West 432 497 38,000  Level Cleveland Center
Sun 03:23:34 PM 42.9678 -83.7444 280° West 432 497 38,000  Level Cleveland Center
Sun 03:24:36 PM 42.9831 -83.9044 277° West 429 494 38,000  Level Cleveland Center
Sun 03:25:38 PM 42.9986 -84.0653 278° West 429 494 38,000  Level Cleveland Center
Sun 03:26:40 PM 43.0136 -84.2267 277° West 429 494 38,000  Level Cleveland Center
Sun 03:27:42 PM 43.0314 -84.4131 277° West 429 494 38,000  Level Cleveland Center
Sun 03:28:44 PM 43.0456 -84.5742 277° West 429 494 38,000  Level Cleveland Center
Sun 03:29:46 PM 43.0594 -84.7339 277° West 429 494 38,000  Level Cleveland Center
Sun 03:30:49 PM 43.0744 -84.8939 277° West 427 491 38,000  Level Cleveland Center
Sun 03:31:51 PM 43.0883 -85.0500 277° West 417 480 38,000 -484 Level Cleveland Center
Sun 03:32:53 PM 43.1036 -85.2381 276° West 416 479 37,000 -968 Descending Cleveland Center
Sun 03:33:55 PM 43.1183 -85.3961 277° West 417 480 36,000 -968 Descending Cleveland Center
Sun 03:34:57 PM 43.1306 -85.5569 276° West 423 487 35,000 -968 Descending Cleveland Center
Sun 03:35:59 PM 43.1447 -85.7161 277° West 425 489 34,000 -1,113 Descending Cleveland Center
Sun 03:37:01 PM 43.1581 -85.8736 277° West 425 489 32,700 -2,081 Descending Cleveland Center
Sun 03:38:03 PM 43.1708 -86.0597 275° West 424 488 29,700 -2,710 Descending Cleveland Center
Sun 03:39:05 PM 43.1675 -86.2133 268° West 417 480 27,100 -2,620 Descending Cleveland Center
Sun 03:40:25 PM 43.1644 -86.4208 269° West 385 443 23,500 -2,535 Descending Chicago Center
Sun 03:41:27 PM 43.1614 -86.5664 268° West 376 433 21,100 -2,274 Descending Chicago Center
Sun 03:42:29 PM 43.1589 -86.7072 269° West 370 426 18,800 -2,226 Descending Chicago Center
Sun 03:43:31 PM 43.1564 -86.8436 269° West 358 412 16,500 -2,226 Descending Chicago Center
Sun 03:44:33 PM 43.1528 -86.9717 268° West 337 388 14,200 -1,452 Descending Chicago Center
Sun 03:45:35 PM 43.1522 -87.1217 270° West 327 376 13,500 -1,500 Descending Chicago Center
Sun 03:46:37 PM 43.1539 -87.2314 271° West 292 336 11,100 -2,468 Descending Chicago Center
Sun 03:47:39 PM 43.1558 -87.3367 271° West 279 321 8,400 -1,984 Descending Chicago Center
Sun 03:48:41 PM 43.1575 -87.4300 271° West 266 306 7,000 -726 Descending Chicago Center
Sun 03:49:43 PM 43.1597 -87.5436 272° West 250 288 6,900 -677 Descending Chicago Center
Sun 03:50:45 PM 43.1611 -87.6253 271° West 221 254 5,600 -1,306 Descending Chicago Center
Sun 03:51:47 PM 43.1644 -87.7053 273° West 214 246 4,200 -774 Descending Chicago Center
Sun 03:52:49 PM 43.1669 -87.7850 272° West 212 244 4,000 -484 Descending Chicago Center
Sun 03:53:51 PM 43.1306 -87.8392 227° Southwest 203 234 3,200 -581 Descending Chicago Center
Sun 03:54:53 PM 43.0836 -87.8711 206° Southwest 206 237 2,800 -484 Descending Chicago Center
Sun 03:55:55 PM 43.0306 -87.8803 187° South 174 200 2,200 -581 Descending Chicago Center
Sun 03:56:57 PM 42.9961 -87.8867 188° South 150 173 1,600 -581 Descending Chicago Center
Sun 04:00:00 PM 42.9469 -87.8971 208° Southwest  Level Estimated

Login

Don't have an account? Register now (free) for customized features, flight alerts, and more!